sensor_id;sensor_type;location;lat;lon;timestamp;P1;durP1;ratioP1;P2;durP2;ratioP2
24635;SDS011;12772;49.794;10.024;2023-05-10T00:01:06;2.42;;;2.22;;
24635;SDS011;12772;49.794;10.024;2023-05-10T00:05:08;2.22;;;1.92;;
24635;SDS011;12772;49.794;10.024;2023-05-10T00:09:10;2.47;;;2.30;;
24635;SDS011;12772;49.794;10.024;2023-05-10T00:13:12;2.80;;;2.60;;
24635;SDS011;12772;49.794;10.024;2023-05-10T00:17:14;2.95;;;2.05;;
24635;SDS011;12772;49.794;10.024;2023-05-10T00:21:16;2.42;;;2.22;;
24635;SDS011;12772;49.794;10.024;2023-05-10T00:25:18;2.72;;;2.53;;
24635;SDS011;12772;49.794;10.024;2023-05-10T00:29:21;2.40;;;2.30;;
24635;SDS011;12772;49.794;10.024;2023-05-10T00:33:24;2.65;;;2.47;;
24635;SDS011;12772;49.794;10.024;2023-05-10T00:37:26;1.95;;;1.85;;
24635;SDS011;12772;49.794;10.024;2023-05-10T00:41:28;2.15;;;2.05;;
24635;SDS011;12772;49.794;10.024;2023-05-10T00:45:32;2.38;;;2.25;;
24635;SDS011;12772;49.794;10.024;2023-05-10T00:49:36;2.33;;;2.10;;
24635;SDS011;12772;49.794;10.024;2023-05-10T00:53:39;1.90;;;1.80;;
24635;SDS011;12772;49.794;10.024;2023-05-10T00:57:42;2.30;;;2.10;;
24635;SDS011;12772;49.794;10.024;2023-05-10T01:01:44;1.92;;;1.83;;
24635;SDS011;12772;49.794;10.024;2023-05-10T01:05:47;4.78;;;2.00;;
24635;SDS011;12772;49.794;10.024;2023-05-10T01:09:49;2.35;;;1.65;;
24635;SDS011;12772;49.794;10.024;2023-05-10T01:13:52;1.60;;;1.48;;
24635;SDS011;12772;49.794;10.024;2023-05-10T01:17:57;1.48;;;1.38;;
24635;SDS011;12772;49.794;10.024;2023-05-10T01:35:19;1.70;;;1.60;;
24635;SDS011;12772;49.794;10.024;2023-05-10T01:39:46;1.70;;;1.60;;
24635;SDS011;12772;49.794;10.024;2023-05-10T01:43:57;1.38;;;1.38;;
24635;SDS011;12772;49.794;10.024;2023-05-10T01:48:11;1.42;;;1.33;;
24635;SDS011;12772;49.794;10.024;2023-05-10T01:52:16;1.40;;;1.40;;
24635;SDS011;12772;49.794;10.024;2023-05-10T01:56:21;2.10;;;1.55;;
24635;SDS011;12772;49.794;10.024;2023-05-10T02:00:27;1.50;;;1.40;;
24635;SDS011;12772;49.794;10.024;2023-05-10T02:04:31;1.20;;;1.20;;
24635;SDS011;12772;49.794;10.024;2023-05-10T02:08:38;1.00;;;1.00;;
24635;SDS011;12772;49.794;10.024;2023-05-10T02:12:42;0.90;;;0.90;;
24635;SDS011;12772;49.794;10.024;2023-05-10T02:16:47;0.82;;;0.82;;
24635;SDS011;12772;49.794;10.024;2023-05-10T02:20:51;1.80;;;0.80;;
24635;SDS011;12772;49.794;10.024;2023-05-10T02:24:56;1.00;;;0.80;;
24635;SDS011;12772;49.794;10.024;2023-05-10T02:29:01;1.38;;;0.93;;
24635;SDS011;12772;49.794;10.024;2023-05-10T02:33:05;1.08;;;0.98;;
24635;SDS011;12772;49.794;10.024;2023-05-10T02:37:07;0.88;;;0.88;;
24635;SDS011;12772;49.794;10.024;2023-05-10T02:41:11;0.80;;;0.80;;
24635;SDS011;12772;49.794;10.024;2023-05-10T02:45:15;0.63;;;0.63;;
24635;SDS011;12772;49.794;10.024;2023-05-10T02:49:22;0.70;;;0.70;;
24635;SDS011;12772;49.794;10.024;2023-05-10T02:53:28;1.13;;;0.80;;
24635;SDS011;12772;49.794;10.024;2023-05-10T02:57:33;0.65;;;0.65;;
24635;SDS011;12772;49.794;10.024;2023-05-10T03:01:36;0.82;;;0.73;;
24635;SDS011;12772;49.794;10.024;2023-05-10T03:05:38;0.60;;;0.60;;
24635;SDS011;12772;49.794;10.024;2023-05-10T03:09:40;0.63;;;0.63;;
24635;SDS011;12772;49.794;10.024;2023-05-10T03:13:54;0.50;;;0.50;;
24635;SDS011;12772;49.794;10.024;2023-05-10T03:18:23;0.80;;;0.80;;
24635;SDS011;12772;49.794;10.024;2023-05-10T03:22:38;0.70;;;0.70;;
24635;SDS011;12772;49.794;10.024;2023-05-10T03:26:46;0.73;;;0.73;;
24635;SDS011;12772;49.794;10.024;2023-05-10T03:30:50;1.08;;;0.70;;
24635;SDS011;12772;49.794;10.024;2023-05-10T03:34:54;0.57;;;0.57;;
24635;SDS011;12772;49.794;10.024;2023-05-10T03:38:56;0.70;;;0.70;;
24635;SDS011;12772;49.794;10.024;2023-05-10T03:42:59;0.70;;;0.70;;
24635;SDS011;12772;49.794;10.024;2023-05-10T03:47:01;0.60;;;0.60;;
24635;SDS011;12772;49.794;10.024;2023-05-10T03:51:03;0.60;;;0.60;;
24635;SDS011;12772;49.794;10.024;2023-05-10T03:55:05;0.75;;;0.75;;
24635;SDS011;12772;49.794;10.024;2023-05-10T03:59:08;0.80;;;0.73;;
24635;SDS011;12772;49.794;10.024;2023-05-10T04:03:10;0.70;;;0.70;;
24635;SDS011;12772;49.794;10.024;2023-05-10T04:07:12;2.47;;;0.88;;
24635;SDS011;12772;49.794;10.024;2023-05-10T04:11:14;0.70;;;0.70;;
24635;SDS011;12772;49.794;10.024;2023-05-10T04:15:16;0.60;;;0.60;;
24635;SDS011;12772;49.794;10.024;2023-05-10T04:19:18;0.75;;;0.75;;
24635;SDS011;12772;49.794;10.024;2023-05-10T04:23:20;0.95;;;0.80;;
24635;SDS011;12772;49.794;10.024;2023-05-10T04:27:22;0.70;;;0.70;;
24635;SDS011;12772;49.794;10.024;2023-05-10T04:31:24;1.48;;;0.82;;
24635;SDS011;12772;49.794;10.024;2023-05-10T04:35:27;0.95;;;0.90;;
24635;SDS011;12772;49.794;10.024;2023-05-10T04:39:29;0.90;;;0.90;;
24635;SDS011;12772;49.794;10.024;2023-05-10T04:43:32;0.75;;;0.75;;
24635;SDS011;12772;49.794;10.024;2023-05-10T04:47:34;0.98;;;0.88;;
24635;SDS011;12772;49.794;10.024;2023-05-10T04:51:37;0.80;;;0.80;;
24635;SDS011;12772;49.794;10.024;2023-05-10T04:55:39;0.82;;;0.82;;
24635;SDS011;12772;49.794;10.024;2023-05-10T04:59:41;1.35;;;0.80;;
24635;SDS011;12772;49.794;10.024;2023-05-10T05:03:43;0.90;;;0.90;;
24635;SDS011;12772;49.794;10.024;2023-05-10T05:07:46;0.90;;;0.90;;
24635;SDS011;12772;49.794;10.024;2023-05-10T05:11:48;0.95;;;0.95;;
24635;SDS011;12772;49.794;10.024;2023-05-10T05:15:50;0.90;;;0.90;;
24635;SDS011;12772;49.794;10.024;2023-05-10T05:19:52;0.80;;;0.80;;
24635;SDS011;12772;49.794;10.024;2023-05-10T05:23:54;0.95;;;0.93;;
24635;SDS011;12772;49.794;10.024;2023-05-10T05:27:57;0.90;;;0.80;;
24635;SDS011;12772;49.794;10.024;2023-05-10T05:31:59;0.80;;;0.80;;
24635;SDS011;12772;49.794;10.024;2023-05-10T05:36:02;1.13;;;1.10;;
24635;SDS011;12772;49.794;10.024;2023-05-10T05:40:06;1.13;;;0.90;;
24635;SDS011;12772;49.794;10.024;2023-05-10T05:44:08;1.25;;;1.10;;
24635;SDS011;12772;49.794;10.024;2023-05-10T05:48:10;1.08;;;1.00;;
24635;SDS011;12772;49.794;10.024;2023-05-10T05:52:12;1.25;;;1.00;;
24635;SDS011;12772;49.794;10.024;2023-05-10T05:56:14;0.80;;;0.80;;
24635;SDS011;12772;49.794;10.024;2023-05-10T06:00:17;2.25;;;1.10;;
24635;SDS011;12772;49.794;10.024;2023-05-10T06:04:19;1.05;;;1.05;;
24635;SDS011;12772;49.794;10.024;2023-05-10T06:08:21;1.05;;;1.05;;
24635;SDS011;12772;49.794;10.024;2023-05-10T06:12:23;1.13;;;1.13;;
24635;SDS011;12772;49.794;10.024;2023-05-10T06:16:26;1.95;;;1.20;;
24635;SDS011;12772;49.794;10.024;2023-05-10T06:20:28;1.38;;;1.27;;
24635;SDS011;12772;49.794;10.024;2023-05-10T06:24:31;3.90;;;1.20;;
24635;SDS011;12772;49.794;10.024;2023-05-10T06:28:33;1.42;;;1.20;;
24635;SDS011;12772;49.794;10.024;2023-05-10T06:32:35;1.30;;;1.20;;
24635;SDS011;12772;49.794;10.024;2023-05-10T06:36:37;0.98;;;0.98;;
24635;SDS011;12772;49.794;10.024;2023-05-10T06:40:42;1.15;;;1.15;;
24635;SDS011;12772;49.794;10.024;2023-05-10T06:44:44;1.38;;;1.30;;
24635;SDS011;12772;49.794;10.024;2023-05-10T06:48:46;2.28;;;1.25;;
24635;SDS011;12772;49.794;10.024;2023-05-10T06:52:48;1.83;;;1.20;;
24635;SDS011;12772;49.794;10.024;2023-05-10T06:56:51;1.25;;;1.10;;
24635;SDS011;12772;49.794;10.024;2023-05-10T07:00:53;1.40;;;1.35;;
24635;SDS011;12772;49.794;10.024;2023-05-10T07:04:55;3.33;;;1.45;;
24635;SDS011;12772;49.794;10.024;2023-05-10T07:08:57;1.50;;;1.40;;
24635;SDS011;12772;49.794;10.024;2023-05-10T07:13:02;5.97;;;2.00;;
24635;SDS011;12772;49.794;10.024;2023-05-10T07:17:04;2.33;;;1.50;;
24635;SDS011;12772;49.794;10.024;2023-05-10T07:21:06;4.25;;;1.42;;
24635;SDS011;12772;49.794;10.024;2023-05-10T07:25:09;2.67;;;1.60;;
24635;SDS011;12772;49.794;10.024;2023-05-10T07:29:11;1.42;;;1.33;;
24635;SDS011;12772;49.794;10.024;2023-05-10T07:33:13;3.60;;;1.60;;
24635;SDS011;12772;49.794;10.024;2023-05-10T07:37:16;1.40;;;1.30;;
24635;SDS011;12772;49.794;10.024;2023-05-10T07:41:18;1.38;;;1.33;;
24635;SDS011;12772;49.794;10.024;2023-05-10T07:45:21;1.88;;;1.58;;
24635;SDS011;12772;49.794;10.024;2023-05-10T07:49:23;3.55;;;1.70;;
24635;SDS011;12772;49.794;10.024;2023-05-10T07:53:26;1.83;;;1.50;;
24635;SDS011;12772;49.794;10.024;2023-05-10T07:57:28;3.35;;;1.92;;
24635;SDS011;12772;49.794;10.024;2023-05-10T08:01:31;2.20;;;1.88;;
24635;SDS011;12772;49.794;10.024;2023-05-10T08:05:35;3.15;;;1.95;;
24635;SDS011;12772;49.794;10.024;2023-05-10T08:09:37;2.03;;;1.83;;
24635;SDS011;12772;49.794;10.024;2023-05-10T08:13:39;3.53;;;1.88;;
24635;SDS011;12772;49.794;10.024;2023-05-10T08:17:41;1.70;;;1.60;;
24635;SDS011;12772;49.794;10.024;2023-05-10T08:21:43;2.00;;;1.55;;
24635;SDS011;12772;49.794;10.024;2023-05-10T08:25:45;2.15;;;1.80;;
24635;SDS011;12772;49.794;10.024;2023-05-10T08:29:47;2.38;;;1.50;;
24635;SDS011;12772;49.794;10.024;2023-05-10T08:33:49;1.98;;;1.33;;
24635;SDS011;12772;49.794;10.024;2023-05-10T08:37:51;1.67;;;1.58;;
24635;SDS011;12772;49.794;10.024;2023-05-10T08:41:53;2.05;;;1.40;;
24635;SDS011;12772;49.794;10.024;2023-05-10T08:46:00;1.50;;;1.40;;
24635;SDS011;12772;49.794;10.024;2023-05-10T08:50:03;3.33;;;1.60;;
24635;SDS011;12772;49.794;10.024;2023-05-10T08:54:05;2.45;;;1.55;;
24635;SDS011;12772;49.794;10.024;2023-05-10T08:58:08;3.72;;;1.77;;
24635;SDS011;12772;49.794;10.024;2023-05-10T09:02:11;3.58;;;1.67;;
24635;SDS011;12772;49.794;10.024;2023-05-10T09:06:15;3.47;;;1.70;;
24635;SDS011;12772;49.794;10.024;2023-05-10T09:10:17;1.60;;;1.50;;
24635;SDS011;12772;49.794;10.024;2023-05-10T09:14:20;2.83;;;1.48;;
24635;SDS011;12772;49.794;10.024;2023-05-10T09:18:24;3.53;;;1.50;;
24635;SDS011;12772;49.794;10.024;2023-05-10T09:22:26;1.77;;;1.67;;
24635;SDS011;12772;49.794;10.024;2023-05-10T09:26:28;1.70;;;1.60;;
24635;SDS011;12772;49.794;10.024;2023-05-10T09:30:30;1.85;;;1.50;;
24635;SDS011;12772;49.794;10.024;2023-05-10T09:34:32;2.30;;;1.67;;
24635;SDS011;12772;49.794;10.024;2023-05-10T09:38:44;1.63;;;1.52;;
24635;SDS011;12772;49.794;10.024;2023-05-10T09:46:56;1.52;;;1.42;;
24635;SDS011;12772;49.794;10.024;2023-05-10T09:50:58;1.60;;;1.50;;
24635;SDS011;12772;49.794;10.024;2023-05-10T09:55:01;3.05;;;1.48;;
24635;SDS011;12772;49.794;10.024;2023-05-10T09:59:05;2.15;;;1.65;;
24635;SDS011;12772;49.794;10.024;2023-05-10T10:03:16;2.10;;;1.60;;
24635;SDS011;12772;49.794;10.024;2023-05-10T10:07:22;3.72;;;1.85;;
24635;SDS011;12772;49.794;10.024;2023-05-10T10:11:26;2.00;;;1.63;;
24635;SDS011;12772;49.794;10.024;2023-05-10T10:15:28;3.28;;;1.60;;
24635;SDS011;12772;49.794;10.024;2023-05-10T10:19:30;1.55;;;1.23;;
24635;SDS011;12772;49.794;10.024;2023-05-10T10:23:35;1.60;;;1.50;;
24635;SDS011;12772;49.794;10.024;2023-05-10T10:36:05;4.15;;;1.55;;
24635;SDS011;12772;49.794;10.024;2023-05-10T10:40:22;1.38;;;1.27;;
24635;SDS011;12772;49.794;10.024;2023-05-10T10:48:33;2.13;;;1.20;;
24635;SDS011;12772;49.794;10.024;2023-05-10T10:52:40;1.85;;;1.25;;
24635;SDS011;12772;49.794;10.024;2023-05-10T10:56:44;2.67;;;1.40;;
24635;SDS011;12772;49.794;10.024;2023-05-10T11:00:46;1.48;;;1.27;;
24635;SDS011;12772;49.794;10.024;2023-05-10T11:04:48;1.70;;;1.20;;
24635;SDS011;12772;49.794;10.024;2023-05-10T11:08:50;1.60;;;1.38;;
24635;SDS011;12772;49.794;10.024;2023-05-10T11:12:58;10.18;;;1.85;;
24635;SDS011;12772;49.794;10.024;2023-05-10T11:17:24;1.55;;;1.20;;
24635;SDS011;12772;49.794;10.024;2023-05-10T11:21:31;1.98;;;1.17;;
24635;SDS011;12772;49.794;10.024;2023-05-10T11:25:33;1.33;;;1.30;;
24635;SDS011;12772;49.794;10.024;2023-05-10T11:29:35;2.72;;;1.17;;
24635;SDS011;12772;49.794;10.024;2023-05-10T11:33:44;1.00;;;1.00;;
24635;SDS011;12772;49.794;10.024;2023-05-10T11:37:47;1.20;;;1.10;;
24635;SDS011;12772;49.794;10.024;2023-05-10T11:41:49;1.27;;;1.15;;
24635;SDS011;12772;49.794;10.024;2023-05-10T11:45:51;1.08;;;0.90;;
24635;SDS011;12772;49.794;10.024;2023-05-10T11:49:53;1.33;;;1.10;;
24635;SDS011;12772;49.794;10.024;2023-05-10T11:53:56;1.65;;;1.25;;
24635;SDS011;12772;49.794;10.024;2023-05-10T11:58:00;1.33;;;1.17;;
24635;SDS011;12772;49.794;10.024;2023-05-10T12:02:03;2.55;;;0.95;;
24635;SDS011;12772;49.794;10.024;2023-05-10T12:06:06;18.13;;;2.53;;
24635;SDS011;12772;49.794;10.024;2023-05-10T12:10:09;1.40;;;1.30;;
24635;SDS011;12772;49.794;10.024;2023-05-10T12:14:15;1.10;;;1.10;;
24635;SDS011;12772;49.794;10.024;2023-05-10T12:18:22;1.70;;;1.02;;
24635;SDS011;12772;49.794;10.024;2023-05-10T12:22:25;1.30;;;1.20;;
24635;SDS011;12772;49.794;10.024;2023-05-10T12:26:27;1.25;;;1.20;;
24635;SDS011;12772;49.794;10.024;2023-05-10T12:30:31;1.55;;;0.95;;
24635;SDS011;12772;49.794;10.024;2023-05-10T12:34:34;0.98;;;0.90;;
24635;SDS011;12772;49.794;10.024;2023-05-10T12:38:39;2.20;;;1.20;;
24635;SDS011;12772;49.794;10.024;2023-05-10T12:42:43;1.95;;;1.35;;
24635;SDS011;12772;49.794;10.024;2023-05-10T12:46:45;1.33;;;1.20;;
24635;SDS011;12772;49.794;10.024;2023-05-10T12:50:48;2.53;;;1.00;;
24635;SDS011;12772;49.794;10.024;2023-05-10T12:54:50;1.02;;;1.00;;
24635;SDS011;12772;49.794;10.024;2023-05-10T12:58:52;3.97;;;0.98;;
24635;SDS011;12772;49.794;10.024;2023-05-10T13:02:54;4.65;;;1.13;;
24635;SDS011;12772;49.794;10.024;2023-05-10T13:06:56;2.17;;;1.20;;
24635;SDS011;12772;49.794;10.024;2023-05-10T13:11:02;4.07;;;1.10;;
24635;SDS011;12772;49.794;10.024;2023-05-10T13:15:05;1.00;;;1.00;;
24635;SDS011;12772;49.794;10.024;2023-05-10T13:19:07;1.40;;;1.30;;
24635;SDS011;12772;49.794;10.024;2023-05-10T13:23:09;1.50;;;1.40;;
24635;SDS011;12772;49.794;10.024;2023-05-10T13:27:12;2.50;;;1.50;;
24635;SDS011;12772;49.794;10.024;2023-05-10T13:31:14;1.85;;;1.58;;
24635;SDS011;12772;49.794;10.024;2023-05-10T13:35:16;1.70;;;1.45;;
24635;SDS011;12772;49.794;10.024;2023-05-10T13:39:18;2.65;;;1.70;;
24635;SDS011;12772;49.794;10.024;2023-05-10T13:43:20;2.75;;;1.50;;
24635;SDS011;12772;49.794;10.024;2023-05-10T13:47:22;1.60;;;1.50;;
24635;SDS011;12772;49.794;10.024;2023-05-10T13:51:24;1.92;;;1.67;;
24635;SDS011;12772;49.794;10.024;2023-05-10T13:55:26;3.80;;;1.38;;
24635;SDS011;12772;49.794;10.024;2023-05-10T13:59:29;1.65;;;1.52;;
24635;SDS011;12772;49.794;10.024;2023-05-10T14:03:32;2.13;;;1.70;;
24635;SDS011;12772;49.794;10.024;2023-05-10T14:07:34;1.92;;;1.70;;
24635;SDS011;12772;49.794;10.024;2023-05-10T14:11:36;2.45;;;1.88;;
24635;SDS011;12772;49.794;10.024;2023-05-10T14:15:42;5.22;;;1.75;;
24635;SDS011;12772;49.794;10.024;2023-05-10T14:19:44;2.70;;;1.67;;
24635;SDS011;12772;49.794;10.024;2023-05-10T14:23:46;1.70;;;1.60;;
24635;SDS011;12772;49.794;10.024;2023-05-10T14:27:48;2.00;;;1.73;;
24635;SDS011;12772;49.794;10.024;2023-05-10T14:31:49;1.80;;;1.70;;
24635;SDS011;12772;49.794;10.024;2023-05-10T14:35:51;3.05;;;1.73;;
24635;SDS011;12772;49.794;10.024;2023-05-10T14:39:59;2.70;;;2.03;;
24635;SDS011;12772;49.794;10.024;2023-05-10T14:44:01;3.25;;;2.95;;
24635;SDS011;12772;49.794;10.024;2023-05-10T14:48:04;2.83;;;2.63;;
24635;SDS011;12772;49.794;10.024;2023-05-10T14:52:06;2.20;;;2.00;;
24635;SDS011;12772;49.794;10.024;2023-05-10T14:56:08;2.80;;;2.05;;
24635;SDS011;12772;49.794;10.024;2023-05-10T15:00:10;2.92;;;1.90;;
24635;SDS011;12772;49.794;10.024;2023-05-10T15:04:13;3.38;;;3.08;;
24635;SDS011;12772;49.794;10.024;2023-05-10T15:08:16;2.90;;;2.60;;
24635;SDS011;12772;49.794;10.024;2023-05-10T15:12:18;3.30;;;3.00;;
24635;SDS011;12772;49.794;10.024;2023-05-10T15:16:20;12.70;;;9.35;;
24635;SDS011;12772;49.794;10.024;2023-05-10T15:20:23;16.05;;;12.18;;
24635;SDS011;12772;49.794;10.024;2023-05-10T15:24:25;4.60;;;4.20;;
24635;SDS011;12772;49.794;10.024;2023-05-10T15:28:28;4.43;;;3.17;;
24635;SDS011;12772;49.794;10.024;2023-05-10T15:32:30;3.03;;;2.40;;
24635;SDS011;12772;49.794;10.024;2023-05-10T15:36:32;2.70;;;2.50;;
24635;SDS011;12772;49.794;10.024;2023-05-10T15:40:34;5.47;;;2.97;;
24635;SDS011;12772;49.794;10.024;2023-05-10T15:44:36;2.58;;;2.38;;
24635;SDS011;12772;49.794;10.024;2023-05-10T15:48:38;4.25;;;2.20;;
24635;SDS011;12772;49.794;10.024;2023-05-10T15:52:42;2.75;;;1.95;;
24635;SDS011;12772;49.794;10.024;2023-05-10T15:56:44;2.50;;;2.30;;
24635;SDS011;12772;49.794;10.024;2023-05-10T16:00:46;3.72;;;2.47;;
24635;SDS011;12772;49.794;10.024;2023-05-10T16:04:48;1.90;;;1.83;;
24635;SDS011;12772;49.794;10.024;2023-05-10T16:08:51;7.32;;;2.33;;
24635;SDS011;12772;49.794;10.024;2023-05-10T16:12:53;4.53;;;2.08;;
24635;SDS011;12772;49.794;10.024;2023-05-10T16:16:55;2.33;;;2.20;;
24635;SDS011;12772;49.794;10.024;2023-05-10T16:20:57;2.47;;;2.28;;
24635;SDS011;12772;49.794;10.024;2023-05-10T16:25:00;3.72;;;1.98;;
24635;SDS011;12772;49.794;10.024;2023-05-10T16:29:02;2.88;;;1.67;;
24635;SDS011;12772;49.794;10.024;2023-05-10T16:33:04;2.83;;;1.95;;
24635;SDS011;12772;49.794;10.024;2023-05-10T16:37:06;2.20;;;2.00;;
24635;SDS011;12772;49.794;10.024;2023-05-10T16:41:08;3.15;;;2.08;;
24635;SDS011;12772;49.794;10.024;2023-05-10T16:45:10;2.88;;;2.60;;
24635;SDS011;12772;49.794;10.024;2023-05-10T16:49:16;3.00;;;2.30;;
24635;SDS011;12772;49.794;10.024;2023-05-10T16:53:18;1.95;;;1.85;;
24635;SDS011;12772;49.794;10.024;2023-05-10T16:57:20;3.42;;;2.55;;
24635;SDS011;12772;49.794;10.024;2023-05-10T17:01:22;1.92;;;1.83;;
24635;SDS011;12772;49.794;10.024;2023-05-10T17:05:25;2.03;;;1.92;;
24635;SDS011;12772;49.794;10.024;2023-05-10T17:09:27;1.90;;;1.63;;
24635;SDS011;12772;49.794;10.024;2023-05-10T17:13:29;1.60;;;1.50;;
24635;SDS011;12772;49.794;10.024;2023-05-10T17:17:31;1.75;;;1.60;;
24635;SDS011;12772;49.794;10.024;2023-05-10T17:21:33;3.20;;;1.70;;
24635;SDS011;12772;49.794;10.024;2023-05-10T17:25:35;2.03;;;1.60;;
24635;SDS011;12772;49.794;10.024;2023-05-10T17:29:37;2.15;;;1.95;;
24635;SDS011;12772;49.794;10.024;2023-05-10T17:33:39;3.80;;;1.70;;
24635;SDS011;12772;49.794;10.024;2023-05-10T17:37:41;3.03;;;1.40;;
24635;SDS011;12772;49.794;10.024;2023-05-10T17:41:44;1.63;;;1.52;;
24635;SDS011;12772;49.794;10.024;2023-05-10T17:45:46;1.85;;;1.67;;
24635;SDS011;12772;49.794;10.024;2023-05-10T17:49:49;2.83;;;1.80;;
24635;SDS011;12772;49.794;10.024;2023-05-10T17:53:52;2.78;;;1.60;;
24635;SDS011;12772;49.794;10.024;2023-05-10T17:57:54;4.95;;;1.70;;
24635;SDS011;12772;49.794;10.024;2023-05-10T18:01:58;1.98;;;1.73;;
24635;SDS011;12772;49.794;10.024;2023-05-10T18:06:03;3.50;;;1.45;;
24635;SDS011;12772;49.794;10.024;2023-05-10T18:10:06;1.60;;;1.50;;
24635;SDS011;12772;49.794;10.024;2023-05-10T18:14:08;3.03;;;1.50;;
24635;SDS011;12772;49.794;10.024;2023-05-10T18:18:10;1.27;;;1.23;;
24635;SDS011;12772;49.794;10.024;2023-05-10T18:22:12;4.07;;;1.48;;
24635;SDS011;12772;49.794;10.024;2023-05-10T18:26:14;1.38;;;1.27;;
24635;SDS011;12772;49.794;10.024;2023-05-10T18:30:17;5.10;;;2.00;;
24635;SDS011;12772;49.794;10.024;2023-05-10T18:34:19;4.57;;;3.40;;
24635;SDS011;12772;49.794;10.024;2023-05-10T18:38:21;5.15;;;4.05;;
24635;SDS011;12772;49.794;10.024;2023-05-10T18:42:23;4.82;;;3.83;;
24635;SDS011;12772;49.794;10.024;2023-05-10T18:46:26;5.15;;;4.07;;
24635;SDS011;12772;49.794;10.024;2023-05-10T18:50:28;5.93;;;3.50;;
24635;SDS011;12772;49.794;10.024;2023-05-10T18:54:30;5.03;;;3.35;;
24635;SDS011;12772;49.794;10.024;2023-05-10T18:58:32;2.40;;;2.20;;
24635;SDS011;12772;49.794;10.024;2023-05-10T19:02:35;1.65;;;1.42;;
24635;SDS011;12772;49.794;10.024;2023-05-10T19:06:38;1.80;;;1.70;;
24635;SDS011;12772;49.794;10.024;2023-05-10T19:10:41;2.25;;;1.65;;
24635;SDS011;12772;49.794;10.024;2023-05-10T19:14:43;5.28;;;1.83;;
24635;SDS011;12772;49.794;10.024;2023-05-10T19:18:45;2.05;;;1.48;;
24635;SDS011;12772;49.794;10.024;2023-05-10T19:22:47;2.28;;;1.45;;
24635;SDS011;12772;49.794;10.024;2023-05-10T19:26:49;1.77;;;1.30;;
24635;SDS011;12772;49.794;10.024;2023-05-10T19:30:51;1.98;;;1.50;;
24635;SDS011;12772;49.794;10.024;2023-05-10T19:34:53;2.42;;;1.30;;
24635;SDS011;12772;49.794;10.024;2023-05-10T19:38:56;2.15;;;1.25;;
24635;SDS011;12772;49.794;10.024;2023-05-10T19:42:58;4.05;;;1.50;;
24635;SDS011;12772;49.794;10.024;2023-05-10T19:47:00;1.63;;;1.52;;
24635;SDS011;12772;49.794;10.024;2023-05-10T19:51:04;1.30;;;1.20;;
24635;SDS011;12772;49.794;10.024;2023-05-10T19:55:06;1.70;;;1.40;;
24635;SDS011;12772;49.794;10.024;2023-05-10T19:59:08;3.33;;;1.50;;
24635;SDS011;12772;49.794;10.024;2023-05-10T20:03:11;1.48;;;1.38;;
24635;SDS011;12772;49.794;10.024;2023-05-10T20:07:13;3.28;;;1.38;;
24635;SDS011;12772;49.794;10.024;2023-05-10T20:11:14;1.48;;;1.38;;
24635;SDS011;12772;49.794;10.024;2023-05-10T20:15:17;1.85;;;1.38;;
24635;SDS011;12772;49.794;10.024;2023-05-10T20:19:21;4.78;;;1.52;;
24635;SDS011;12772;49.794;10.024;2023-05-10T20:23:23;1.77;;;1.25;;
24635;SDS011;12772;49.794;10.024;2023-05-10T20:27:25;2.20;;;1.30;;
24635;SDS011;12772;49.794;10.024;2023-05-10T20:31:27;2.15;;;1.52;;
24635;SDS011;12772;49.794;10.024;2023-05-10T20:35:29;2.00;;;1.10;;
24635;SDS011;12772;49.794;10.024;2023-05-10T20:39:32;1.65;;;1.38;;
24635;SDS011;12772;49.794;10.024;2023-05-10T20:43:34;1.67;;;1.30;;
24635;SDS011;12772;49.794;10.024;2023-05-10T20:47:37;2.55;;;1.10;;
24635;SDS011;12772;49.794;10.024;2023-05-10T20:51:39;2.45;;;1.20;;
24635;SDS011;12772;49.794;10.024;2023-05-10T20:55:41;1.90;;;1.48;;
24635;SDS011;12772;49.794;10.024;2023-05-10T20:59:43;1.63;;;1.30;;
24635;SDS011;12772;49.794;10.024;2023-05-10T21:03:45;1.25;;;1.15;;
24635;SDS011;12772;49.794;10.024;2023-05-10T21:07:47;2.03;;;1.58;;
24635;SDS011;12772;49.794;10.024;2023-05-10T21:11:49;1.25;;;1.10;;
24635;SDS011;12772;49.794;10.024;2023-05-10T21:15:51;5.00;;;1.63;;
24635;SDS011;12772;49.794;10.024;2023-05-10T21:19:53;1.35;;;1.23;;
24635;SDS011;12772;49.794;10.024;2023-05-10T21:23:55;2.20;;;1.48;;
24635;SDS011;12772;49.794;10.024;2023-05-10T21:27:57;1.27;;;1.17;;
24635;SDS011;12772;49.794;10.024;2023-05-10T21:31:59;1.85;;;1.17;;
24635;SDS011;12772;49.794;10.024;2023-05-10T21:36:01;3.03;;;1.30;;
24635;SDS011;12772;49.794;10.024;2023-05-10T21:40:04;2.55;;;1.40;;
24635;SDS011;12772;49.794;10.024;2023-05-10T21:44:06;2.15;;;1.33;;
24635;SDS011;12772;49.794;10.024;2023-05-10T21:48:08;1.05;;;1.05;;
24635;SDS011;12772;49.794;10.024;2023-05-10T21:52:10;3.78;;;1.20;;
24635;SDS011;12772;49.794;10.024;2023-05-10T21:56:12;2.65;;;1.63;;
24635;SDS011;12772;49.794;10.024;2023-05-10T22:00:14;3.05;;;1.20;;
24635;SDS011;12772;49.794;10.024;2023-05-10T22:04:18;2.30;;;1.58;;
24635;SDS011;12772;49.794;10.024;2023-05-10T22:08:20;1.20;;;1.10;;
24635;SDS011;12772;49.794;10.024;2023-05-10T22:12:22;1.38;;;1.27;;
24635;SDS011;12772;49.794;10.024;2023-05-10T22:16:24;1.40;;;1.30;;
24635;SDS011;12772;49.794;10.024;2023-05-10T22:20:26;1.30;;;1.20;;
24635;SDS011;12772;49.794;10.024;2023-05-10T22:24:29;1.80;;;1.60;;
24635;SDS011;12772;49.794;10.024;2023-05-10T22:28:31;1.83;;;1.40;;
24635;SDS011;12772;49.794;10.024;2023-05-10T22:32:33;2.17;;;1.40;;
24635;SDS011;12772;49.794;10.024;2023-05-10T22:36:35;4.43;;;1.38;;
24635;SDS011;12772;49.794;10.024;2023-05-10T22:40:37;1.50;;;1.17;;
24635;SDS011;12772;49.794;10.024;2023-05-10T22:44:40;1.20;;;1.20;;
24635;SDS011;12772;49.794;10.024;2023-05-10T22:48:42;4.80;;;1.40;;
24635;SDS011;12772;49.794;10.024;2023-05-10T22:52:44;1.27;;;1.17;;
24635;SDS011;12772;49.794;10.024;2023-05-10T22:56:46;2.22;;;1.33;;
24635;SDS011;12772;49.794;10.024;2023-05-10T23:00:48;1.33;;;1.20;;
24635;SDS011;12772;49.794;10.024;2023-05-10T23:04:50;1.52;;;1.25;;
24635;SDS011;12772;49.794;10.024;2023-05-10T23:08:53;3.80;;;1.20;;
24635;SDS011;12772;49.794;10.024;2023-05-10T23:12:55;3.00;;;1.27;;
24635;SDS011;12772;49.794;10.024;2023-05-10T23:16:57;2.92;;;1.20;;
24635;SDS011;12772;49.794;10.024;2023-05-10T23:20:59;1.95;;;1.20;;
24635;SDS011;12772;49.794;10.024;2023-05-10T23:25:01;1.60;;;1.35;;
24635;SDS011;12772;49.794;10.024;2023-05-10T23:29:03;2.25;;;1.20;;
24635;SDS011;12772;49.794;10.024;2023-05-10T23:33:05;4.72;;;1.30;;
24635;SDS011;12772;49.794;10.024;2023-05-10T23:37:07;3.45;;;1.40;;
24635;SDS011;12772;49.794;10.024;2023-05-10T23:41:09;2.95;;;1.65;;
24635;SDS011;12772;49.794;10.024;2023-05-10T23:45:11;1.38;;;1.30;;
24635;SDS011;12772;49.794;10.024;2023-05-10T23:49:13;1.77;;;1.50;;
24635;SDS011;12772;49.794;10.024;2023-05-10T23:53:16;1.67;;;1.30;;
24635;SDS011;12772;49.794;10.024;2023-05-10T23:57:18;1.58;;;1.25;;
